Terminal Aerodrome Forecast
Issued by NWS

Home | Current Version | Previous Version | Text Only | Print | Product List | Glossary On
Versions: 1 2 3 4 5 6 7 8 9 10 11 12 13 14 15
000
FTUS41 KPHI 272101 AAA
TAFMIV
TAF AMD
KMIV 272101Z 2721/2818 18008G16KT P6SM SCT040
     FM280100 19006KT P6SM SCT120
     FM280800 20003KT 4SM BR BKN010
     FM281400 23007KT P6SM SCT010 BKN150=

USA.gov is the U.S. government's official web portal to all federal, state and local government web resources and services.